Velkommen til

Stord Flyklubb

Om oss

Historien til Stord Flyklubb

Klubbens aner strekker seg tilbake til 1969 med sjøfly. Siden har vi sett vanlige motorfly og glidefly, men det er sportsfly som er hovedfokuset i dag

En kilometer vei vil ta deg en kilometer

En kilometer rullebane vil ta deg hvor enn du vil

Bli pilot

Alle kan lære å fly!

Ta en prøvetur hos oss og se hvor moro det er! Prøveturen gir deg en mulighet til å se om dette er noe du har lyst til å gå videre med.

Teorien tas av de fleste som hjemmeundervisning. Nytt læremateriell gjør opplæringen både enklere og mer strømlinjeformet.

Praksis kan påbegynnes mens man tar teorien, men teorien må være bestått før man kan fly solo. 

METAR Haugesund
ENHD 281620Z 21007KT 9999 VCSH FEW032CB SCT064 BKN220 18/15 Q1002 ENHD 281550Z 22006KT 9999 FEW032 SCT220 18/15 Q1002 ENHD 281520Z 22006KT 190V250 9999 FEW048 SCT220 19/15 Q1002 ENHD 281450Z 22009KT 9999 FEW048 SCT098 19/16 Q1002 ENHD 281420Z 22010KT 9999 FEW048 19/16 Q1002 ENHD 281350Z 22008KT 9999 FEW049 19/15 Q1002 TAF ENHD 281400Z 2815/2819 22010KT 9999 FEW015TCU SCT030 TEMPO 2815/2819 4000 SHRA SCT005 BKN018CB BECMG 2815/2817 16010KT
METAR Flesland
ENBR 281620Z 10004KT 9999 VCSH FEW007 SCT020 BKN080 17/16 Q1002 TEMPO SHRA RMK WIND 1200FT VRB04KT ENBR 281550Z VRB02KT 9999 -SHRA FEW004 SCT020TCU SCT080 18/16 Q1002 RMK WIND 1200FT 23005KT ENBR 281520Z 18007KT 9999 FEW004 SCT035 19/15 Q1002 TEMPO SHRA RMK WIND 1200FT 21009KT ENBR 281450Z 13004KT 090V180 9999 VCSH FEW004 SCT035 18/16 Q1003 TEMPO SHRA RMK WIND 1200FT 19011KT ENBR 281420Z 16006KT 9999 -SHRA FEW015 FEW020TCU SCT030 19/15 Q1003 TEMPO SHRA RMK WIND 1200FT 20010KT ENBR 281350Z 21006KT 9999 -SHRA FEW015 SCT020TCU BKN060 19/16 Q1003 TEMPO SHRA RMK WIND 1200FT 21009KT TAF AMD ENBR 2815/2912 VRB06KT 9999 SCT020TCU BKN050 TEMPO 2815/2912 4000 SHRA SCT005 BKN020CB PROB30 TEMPO 2816/2906 TS